sensor_id;sensor_type;location;lat;lon;timestamp;temperature;humidity
17845;DHT22;9047;53.486;10.218;2022-10-16T00:01:32;13.40;99.90
17845;DHT22;9047;53.486;10.218;2022-10-16T00:04:00;13.40;99.90
17845;DHT22;9047;53.486;10.218;2022-10-16T00:06:32;13.40;99.90
17845;DHT22;9047;53.486;10.218;2022-10-16T00:08:59;13.40;99.90
17845;DHT22;9047;53.486;10.218;2022-10-16T00:11:29;13.40;99.90
17845;DHT22;9047;53.486;10.218;2022-10-16T00:14:00;13.30;99.90
17845;DHT22;9047;53.486;10.218;2022-10-16T00:16:28;13.30;99.90
17845;DHT22;9047;53.486;10.218;2022-10-16T00:18:56;13.30;99.90
17845;DHT22;9047;53.486;10.218;2022-10-16T00:21:26;13.30;99.90
17845;DHT22;9047;53.486;10.218;2022-10-16T00:23:56;13.20;99.90
17845;DHT22;9047;53.486;10.218;2022-10-16T00:26:27;13.30;99.90
17845;DHT22;9047;53.486;10.218;2022-10-16T00:28:54;13.10;99.90
17845;DHT22;9047;53.486;10.218;2022-10-16T00:31:22;13.20;99.90
17845;DHT22;9047;53.486;10.218;2022-10-16T00:33:49;13.20;99.90
17845;DHT22;9047;53.486;10.218;2022-10-16T00:36:19;13.10;99.90
17845;DHT22;9047;53.486;10.218;2022-10-16T00:38:46;13.10;99.90
17845;DHT22;9047;53.486;10.218;2022-10-16T00:41:16;13.10;99.90
17845;DHT22;9047;53.486;10.218;2022-10-16T00:43:45;13.10;99.90
17845;DHT22;9047;53.486;10.218;2022-10-16T00:46:17;13.10;99.90
17845;DHT22;9047;53.486;10.218;2022-10-16T00:48:49;13.00;99.90
17845;DHT22;9047;53.486;10.218;2022-10-16T00:51:19;13.00;99.90
17845;DHT22;9047;53.486;10.218;2022-10-16T00:53:48;13.00;99.90
17845;DHT22;9047;53.486;10.218;2022-10-16T00:56:16;12.90;99.90
17845;DHT22;9047;53.486;10.218;2022-10-16T00:58:43;12.90;99.90
17845;DHT22;9047;53.486;10.218;2022-10-16T01:01:10;12.80;99.90
17845;DHT22;9047;53.486;10.218;2022-10-16T01:03:39;12.80;99.90
17845;DHT22;9047;53.486;10.218;2022-10-16T01:06:20;12.70;99.90
17845;DHT22;9047;53.486;10.218;2022-10-16T01:08:57;12.70;99.90
17845;DHT22;9047;53.486;10.218;2022-10-16T01:11:32;12.70;99.90
17845;DHT22;9047;53.486;10.218;2022-10-16T01:14:09;12.60;99.90
17845;DHT22;9047;53.486;10.218;2022-10-16T01:16:41;12.60;99.90
17845;DHT22;9047;53.486;10.218;2022-10-16T01:19:15;12.50;99.90
17845;DHT22;9047;53.486;10.218;2022-10-16T01:21:46;12.50;99.90
17845;DHT22;9047;53.486;10.218;2022-10-16T01:24:23;12.50;99.90
17845;DHT22;9047;53.486;10.218;2022-10-16T01:27:14;12.50;99.90
17845;DHT22;9047;53.486;10.218;2022-10-16T01:29:49;12.50;99.90
17845;DHT22;9047;53.486;10.218;2022-10-16T01:32:21;12.50;99.90
17845;DHT22;9047;53.486;10.218;2022-10-16T01:34:53;12.50;99.90
17845;DHT22;9047;53.486;10.218;2022-10-16T01:37:26;12.60;99.90
17845;DHT22;9047;53.486;10.218;2022-10-16T01:39:58;12.50;99.90
17845;DHT22;9047;53.486;10.218;2022-10-16T01:42:31;12.50;99.90
17845;DHT22;9047;53.486;10.218;2022-10-16T01:45:01;12.50;99.90
17845;DHT22;9047;53.486;10.218;2022-10-16T01:47:30;12.50;99.90
17845;DHT22;9047;53.486;10.218;2022-10-16T01:49:59;12.40;99.90
17845;DHT22;9047;53.486;10.218;2022-10-16T01:52:29;12.40;99.90
17845;DHT22;9047;53.486;10.218;2022-10-16T01:54:57;12.40;99.90
17845;DHT22;9047;53.486;10.218;2022-10-16T01:57:30;12.40;99.90
17845;DHT22;9047;53.486;10.218;2022-10-16T02:00:01;12.30;99.90
17845;DHT22;9047;53.486;10.218;2022-10-16T02:02:32;12.30;99.90
17845;DHT22;9047;53.486;10.218;2022-10-16T02:05:03;12.30;99.90
17845;DHT22;9047;53.486;10.218;2022-10-16T02:07:31;12.20;99.90
17845;DHT22;9047;53.486;10.218;2022-10-16T02:09:59;12.40;99.90
17845;DHT22;9047;53.486;10.218;2022-10-16T02:12:31;12.30;99.90
17845;DHT22;9047;53.486;10.218;2022-10-16T02:14:59;12.20;99.90
17845;DHT22;9047;53.486;10.218;2022-10-16T02:17:28;12.20;99.90
17845;DHT22;9047;53.486;10.218;2022-10-16T02:19:56;12.20;99.90
17845;DHT22;9047;53.486;10.218;2022-10-16T02:22:28;12.20;99.90
17845;DHT22;9047;53.486;10.218;2022-10-16T02:24:59;12.10;99.90
17845;DHT22;9047;53.486;10.218;2022-10-16T02:27:34;12.10;99.90
17845;DHT22;9047;53.486;10.218;2022-10-16T02:30:07;12.10;99.90
17845;DHT22;9047;53.486;10.218;2022-10-16T02:32:39;12.10;99.90
17845;DHT22;9047;53.486;10.218;2022-10-16T02:35:08;12.00;99.90
17845;DHT22;9047;53.486;10.218;2022-10-16T02:37:36;12.00;99.90
17845;DHT22;9047;53.486;10.218;2022-10-16T02:40:05;12.00;99.90
17845;DHT22;9047;53.486;10.218;2022-10-16T02:42:35;12.00;99.90
17845;DHT22;9047;53.486;10.218;2022-10-16T02:45:06;12.00;99.90
17845;DHT22;9047;53.486;10.218;2022-10-16T02:47:33;12.00;99.90
17845;DHT22;9047;53.486;10.218;2022-10-16T02:50:00;12.00;99.90
17845;DHT22;9047;53.486;10.218;2022-10-16T02:52:27;11.90;99.90
17845;DHT22;9047;53.486;10.218;2022-10-16T02:54:54;12.00;99.90
17845;DHT22;9047;53.486;10.218;2022-10-16T02:57:23;11.90;99.90
17845;DHT22;9047;53.486;10.218;2022-10-16T02:59:51;11.90;99.90
17845;DHT22;9047;53.486;10.218;2022-10-16T03:02:21;11.90;99.90
17845;DHT22;9047;53.486;10.218;2022-10-16T03:04:48;11.90;99.90
17845;DHT22;9047;53.486;10.218;2022-10-16T03:07:15;11.90;99.90
17845;DHT22;9047;53.486;10.218;2022-10-16T03:09:41;11.90;99.90
17845;DHT22;9047;53.486;10.218;2022-10-16T03:12:09;11.80;99.90
17845;DHT22;9047;53.486;10.218;2022-10-16T03:14:37;11.80;99.90
17845;DHT22;9047;53.486;10.218;2022-10-16T03:17:06;11.70;99.90
17845;DHT22;9047;53.486;10.218;2022-10-16T03:19:33;11.60;99.90
17845;DHT22;9047;53.486;10.218;2022-10-16T03:22:01;11.60;99.90
17845;DHT22;9047;53.486;10.218;2022-10-16T03:24:29;11.60;99.90
17845;DHT22;9047;53.486;10.218;2022-10-16T03:26:56;11.60;99.90
17845;DHT22;9047;53.486;10.218;2022-10-16T03:29:23;11.50;99.90
17845;DHT22;9047;53.486;10.218;2022-10-16T03:31:51;11.50;99.90
17845;DHT22;9047;53.486;10.218;2022-10-16T03:34:19;11.40;99.90
17845;DHT22;9047;53.486;10.218;2022-10-16T03:36:46;11.40;99.90
17845;DHT22;9047;53.486;10.218;2022-10-16T03:39:13;11.30;99.90
17845;DHT22;9047;53.486;10.218;2022-10-16T03:41:39;11.30;99.90
17845;DHT22;9047;53.486;10.218;2022-10-16T03:44:06;11.20;99.90
17845;DHT22;9047;53.486;10.218;2022-10-16T03:46:33;11.20;99.90
17845;DHT22;9047;53.486;10.218;2022-10-16T03:49:00;11.20;99.90
17845;DHT22;9047;53.486;10.218;2022-10-16T03:51:30;11.10;99.90
17845;DHT22;9047;53.486;10.218;2022-10-16T03:53:57;11.10;99.90
17845;DHT22;9047;53.486;10.218;2022-10-16T03:56:24;11.10;99.90
17845;DHT22;9047;53.486;10.218;2022-10-16T03:58:51;11.10;99.90
17845;DHT22;9047;53.486;10.218;2022-10-16T04:01:17;11.10;99.90
17845;DHT22;9047;53.486;10.218;2022-10-16T04:03:44;11.10;99.90
17845;DHT22;9047;53.486;10.218;2022-10-16T04:06:11;11.20;99.90
17845;DHT22;9047;53.486;10.218;2022-10-16T04:08:41;11.20;99.90
17845;DHT22;9047;53.486;10.218;2022-10-16T04:11:08;11.20;99.90
17845;DHT22;9047;53.486;10.218;2022-10-16T04:13:35;11.20;99.90
17845;DHT22;9047;53.486;10.218;2022-10-16T04:16:02;11.30;99.90
17845;DHT22;9047;53.486;10.218;2022-10-16T04:18:31;11.30;99.90
17845;DHT22;9047;53.486;10.218;2022-10-16T04:21:02;11.30;99.90
17845;DHT22;9047;53.486;10.218;2022-10-16T04:23:29;11.30;99.90
17845;DHT22;9047;53.486;10.218;2022-10-16T04:25:57;11.20;99.90
17845;DHT22;9047;53.486;10.218;2022-10-16T04:28:25;11.20;99.90
17845;DHT22;9047;53.486;10.218;2022-10-16T04:30:52;11.20;99.90
17845;DHT22;9047;53.486;10.218;2022-10-16T04:33:19;11.20;99.90
17845;DHT22;9047;53.486;10.218;2022-10-16T04:35:46;11.20;99.90
17845;DHT22;9047;53.486;10.218;2022-10-16T04:38:13;11.20;99.90
17845;DHT22;9047;53.486;10.218;2022-10-16T04:40:41;11.20;99.90
17845;DHT22;9047;53.486;10.218;2022-10-16T04:43:10;11.20;99.90
17845;DHT22;9047;53.486;10.218;2022-10-16T04:45:37;11.10;99.90
17845;DHT22;9047;53.486;10.218;2022-10-16T04:48:04;11.20;99.90
17845;DHT22;9047;53.486;10.218;2022-10-16T04:50:31;11.10;99.90
17845;DHT22;9047;53.486;10.218;2022-10-16T04:52:58;11.10;99.90
17845;DHT22;9047;53.486;10.218;2022-10-16T04:55:24;11.10;99.90
17845;DHT22;9047;53.486;10.218;2022-10-16T04:57:52;11.10;99.90
17845;DHT22;9047;53.486;10.218;2022-10-16T05:00:20;11.10;99.90
17845;DHT22;9047;53.486;10.218;2022-10-16T05:02:49;11.00;99.90
17845;DHT22;9047;53.486;10.218;2022-10-16T05:05:16;11.10;99.90
17845;DHT22;9047;53.486;10.218;2022-10-16T05:07:44;11.00;99.90
17845;DHT22;9047;53.486;10.218;2022-10-16T05:10:11;11.00;99.90
17845;DHT22;9047;53.486;10.218;2022-10-16T05:12:38;11.00;99.90
17845;DHT22;9047;53.486;10.218;2022-10-16T05:15:06;11.00;99.90
17845;DHT22;9047;53.486;10.218;2022-10-16T05:17:34;11.00;99.90
17845;DHT22;9047;53.486;10.218;2022-10-16T05:20:01;11.00;99.90
17845;DHT22;9047;53.486;10.218;2022-10-16T05:22:29;10.90;99.90
17845;DHT22;9047;53.486;10.218;2022-10-16T05:24:56;10.90;99.90
17845;DHT22;9047;53.486;10.218;2022-10-16T05:27:22;10.90;99.90
17845;DHT22;9047;53.486;10.218;2022-10-16T05:29:49;10.90;99.90
17845;DHT22;9047;53.486;10.218;2022-10-16T05:32:17;10.90;99.90
17845;DHT22;9047;53.486;10.218;2022-10-16T05:34:46;11.00;99.90
17845;DHT22;9047;53.486;10.218;2022-10-16T05:37:12;10.90;99.90
17845;DHT22;9047;53.486;10.218;2022-10-16T05:39:40;11.00;99.90
17845;DHT22;9047;53.486;10.218;2022-10-16T05:42:07;10.90;99.90
17845;DHT22;9047;53.486;10.218;2022-10-16T05:44:34;10.90;99.90
17845;DHT22;9047;53.486;10.218;2022-10-16T05:47:04;10.90;99.90
17845;DHT22;9047;53.486;10.218;2022-10-16T05:49:33;10.90;99.90
17845;DHT22;9047;53.486;10.218;2022-10-16T05:52:02;10.80;99.90
17845;DHT22;9047;53.486;10.218;2022-10-16T05:54:30;10.80;99.90
17845;DHT22;9047;53.486;10.218;2022-10-16T05:56:59;10.80;99.90
17845;DHT22;9047;53.486;10.218;2022-10-16T05:59:33;10.80;99.90
17845;DHT22;9047;53.486;10.218;2022-10-16T06:02:03;10.80;99.90
17845;DHT22;9047;53.486;10.218;2022-10-16T06:04:32;10.80;99.90
17845;DHT22;9047;53.486;10.218;2022-10-16T06:07:04;10.80;99.90
17845;DHT22;9047;53.486;10.218;2022-10-16T06:09:33;10.80;99.90
17845;DHT22;9047;53.486;10.218;2022-10-16T06:12:00;10.90;99.90
17845;DHT22;9047;53.486;10.218;2022-10-16T06:14:27;10.80;99.90
17845;DHT22;9047;53.486;10.218;2022-10-16T06:16:57;10.80;99.90
17845;DHT22;9047;53.486;10.218;2022-10-16T06:19:24;10.80;99.90
17845;DHT22;9047;53.486;10.218;2022-10-16T06:21:53;10.90;99.90
17845;DHT22;9047;53.486;10.218;2022-10-16T06:24:25;10.90;99.90
17845;DHT22;9047;53.486;10.218;2022-10-16T06:26:51;10.90;99.90
17845;DHT22;9047;53.486;10.218;2022-10-16T06:29:19;10.80;99.90
17845;DHT22;9047;53.486;10.218;2022-10-16T06:31:51;10.80;99.90
17845;DHT22;9047;53.486;10.218;2022-10-16T06:34:20;10.80;99.90
17845;DHT22;9047;53.486;10.218;2022-10-16T06:36:47;10.80;99.90
17845;DHT22;9047;53.486;10.218;2022-10-16T06:39:13;10.90;99.90
17845;DHT22;9047;53.486;10.218;2022-10-16T06:41:42;10.90;99.90
17845;DHT22;9047;53.486;10.218;2022-10-16T06:44:09;10.90;99.90
17845;DHT22;9047;53.486;10.218;2022-10-16T06:46:36;10.90;99.90
17845;DHT22;9047;53.486;10.218;2022-10-16T06:49:05;11.00;99.90
17845;DHT22;9047;53.486;10.218;2022-10-16T06:51:32;11.00;99.90
17845;DHT22;9047;53.486;10.218;2022-10-16T06:54:03;11.00;99.90
17845;DHT22;9047;53.486;10.218;2022-10-16T06:56:32;11.10;99.90
17845;DHT22;9047;53.486;10.218;2022-10-16T06:59:01;11.10;99.90
17845;DHT22;9047;53.486;10.218;2022-10-16T07:01:35;11.10;99.90
17845;DHT22;9047;53.486;10.218;2022-10-16T07:04:02;11.20;99.90
17845;DHT22;9047;53.486;10.218;2022-10-16T07:06:33;11.20;99.90
17845;DHT22;9047;53.486;10.218;2022-10-16T07:09:02;11.30;99.90
17845;DHT22;9047;53.486;10.218;2022-10-16T07:11:29;11.50;99.90
17845;DHT22;9047;53.486;10.218;2022-10-16T07:13:56;11.40;99.90
17845;DHT22;9047;53.486;10.218;2022-10-16T07:16:26;11.60;99.90
17845;DHT22;9047;53.486;10.218;2022-10-16T07:18:57;11.70;99.90
17845;DHT22;9047;53.486;10.218;2022-10-16T07:21:25;11.90;99.90
17845;DHT22;9047;53.486;10.218;2022-10-16T07:23:53;12.00;99.90
17845;DHT22;9047;53.486;10.218;2022-10-16T07:26:23;12.10;99.90
17845;DHT22;9047;53.486;10.218;2022-10-16T07:28:51;12.30;99.90
17845;DHT22;9047;53.486;10.218;2022-10-16T07:31:20;12.50;99.90
17845;DHT22;9047;53.486;10.218;2022-10-16T07:33:52;12.60;99.90
17845;DHT22;9047;53.486;10.218;2022-10-16T07:36:22;12.80;99.90
17845;DHT22;9047;53.486;10.218;2022-10-16T07:38:51;13.00;99.90
17845;DHT22;9047;53.486;10.218;2022-10-16T07:41:19;13.20;99.90
17845;DHT22;9047;53.486;10.218;2022-10-16T07:43:47;13.50;99.90
17845;DHT22;9047;53.486;10.218;2022-10-16T07:46:14;13.70;99.90
17845;DHT22;9047;53.486;10.218;2022-10-16T07:48:44;13.90;99.90
17845;DHT22;9047;53.486;10.218;2022-10-16T07:51:16;14.10;99.90
17845;DHT22;9047;53.486;10.218;2022-10-16T07:53:43;14.30;99.90
17845;DHT22;9047;53.486;10.218;2022-10-16T07:56:10;14.50;99.90
17845;DHT22;9047;53.486;10.218;2022-10-16T07:58:37;14.60;99.90
17845;DHT22;9047;53.486;10.218;2022-10-16T08:01:05;14.60;99.90
17845;DHT22;9047;53.486;10.218;2022-10-16T08:03:33;14.70;99.90
17845;DHT22;9047;53.486;10.218;2022-10-16T08:06:00;14.80;99.90
17845;DHT22;9047;53.486;10.218;2022-10-16T08:08:32;15.00;99.90
17845;DHT22;9047;53.486;10.218;2022-10-16T08:11:01;15.30;99.90
17845;DHT22;9047;53.486;10.218;2022-10-16T08:13:29;15.40;99.90
17845;DHT22;9047;53.486;10.218;2022-10-16T08:15:56;15.50;99.90
17845;DHT22;9047;53.486;10.218;2022-10-16T08:18:23;15.50;99.90
17845;DHT22;9047;53.486;10.218;2022-10-16T08:20:55;15.60;99.90
17845;DHT22;9047;53.486;10.218;2022-10-16T08:23:22;15.60;99.90
17845;DHT22;9047;53.486;10.218;2022-10-16T08:25:52;15.60;99.90
17845;DHT22;9047;53.486;10.218;2022-10-16T08:28:19;15.50;99.90
17845;DHT22;9047;53.486;10.218;2022-10-16T08:30:46;15.50;99.90
17845;DHT22;9047;53.486;10.218;2022-10-16T08:33:14;15.40;99.90
17845;DHT22;9047;53.486;10.218;2022-10-16T08:35:41;15.40;99.90
17845;DHT22;9047;53.486;10.218;2022-10-16T08:38:08;15.40;99.90
17845;DHT22;9047;53.486;10.218;2022-10-16T08:40:37;15.30;99.90
17845;DHT22;9047;53.486;10.218;2022-10-16T08:46:19;15.50;99.90
17845;DHT22;9047;53.486;10.218;2022-10-16T08:48:50;15.60;99.90
17845;DHT22;9047;53.486;10.218;2022-10-16T08:51:20;15.80;99.90
17845;DHT22;9047;53.486;10.218;2022-10-16T08:53:52;15.90;99.90
17845;DHT22;9047;53.486;10.218;2022-10-16T08:56:19;16.00;99.90
17845;DHT22;9047;53.486;10.218;2022-10-16T08:58:48;16.20;99.90
17845;DHT22;9047;53.486;10.218;2022-10-16T09:01:17;16.30;99.90
17845;DHT22;9047;53.486;10.218;2022-10-16T09:06:57;16.60;99.90
17845;DHT22;9047;53.486;10.218;2022-10-16T09:09:41;16.70;99.90
17845;DHT22;9047;53.486;10.218;2022-10-16T09:12:14;16.80;99.90
17845;DHT22;9047;53.486;10.218;2022-10-16T09:14:56;16.80;99.90
17845;DHT22;9047;53.486;10.218;2022-10-16T09:17:33;16.90;99.90
17845;DHT22;9047;53.486;10.218;2022-10-16T09:20:13;16.90;99.90
17845;DHT22;9047;53.486;10.218;2022-10-16T09:22:44;17.00;99.90
17845;DHT22;9047;53.486;10.218;2022-10-16T09:25:12;17.10;99.90
17845;DHT22;9047;53.486;10.218;2022-10-16T09:27:41;17.20;99.90
17845;DHT22;9047;53.486;10.218;2022-10-16T09:30:27;17.20;99.90
17845;DHT22;9047;53.486;10.218;2022-10-16T09:32:55;17.30;99.90
17845;DHT22;9047;53.486;10.218;2022-10-16T09:35:35;17.30;99.90
17845;DHT22;9047;53.486;10.218;2022-10-16T09:38:21;17.40;99.90
17845;DHT22;9047;53.486;10.218;2022-10-16T09:40:53;17.40;99.90
17845;DHT22;9047;53.486;10.218;2022-10-16T09:43:26;17.40;99.90
17845;DHT22;9047;53.486;10.218;2022-10-16T09:45:59;17.40;99.90
17845;DHT22;9047;53.486;10.218;2022-10-16T09:48:30;17.50;99.90
17845;DHT22;9047;53.486;10.218;2022-10-16T09:51:19;17.50;99.90
17845;DHT22;9047;53.486;10.218;2022-10-16T09:53:47;17.60;99.90
17845;DHT22;9047;53.486;10.218;2022-10-16T09:56:23;17.70;99.90
17845;DHT22;9047;53.486;10.218;2022-10-16T09:58:53;17.80;99.90
17845;DHT22;9047;53.486;10.218;2022-10-16T10:01:38;17.90;99.90
17845;DHT22;9047;53.486;10.218;2022-10-16T10:04:05;17.90;99.90
17845;DHT22;9047;53.486;10.218;2022-10-16T10:06:40;17.90;99.90
17845;DHT22;9047;53.486;10.218;2022-10-16T10:09:22;17.90;99.90
17845;DHT22;9047;53.486;10.218;2022-10-16T10:11:58;17.90;99.90
17845;DHT22;9047;53.486;10.218;2022-10-16T10:14:34;18.00;99.90
17845;DHT22;9047;53.486;10.218;2022-10-16T10:17:13;18.00;99.90
17845;DHT22;9047;53.486;10.218;2022-10-16T10:19:47;18.10;99.90
17845;DHT22;9047;53.486;10.218;2022-10-16T10:25:49;18.10;99.90
17845;DHT22;9047;53.486;10.218;2022-10-16T10:28:38;18.20;99.90
17845;DHT22;9047;53.486;10.218;2022-10-16T10:31:14;18.20;99.90
17845;DHT22;9047;53.486;10.218;2022-10-16T10:33:52;18.30;99.90
17845;DHT22;9047;53.486;10.218;2022-10-16T10:36:29;18.30;99.90
17845;DHT22;9047;53.486;10.218;2022-10-16T10:39:05;18.40;99.90
17845;DHT22;9047;53.486;10.218;2022-10-16T10:45:11;18.40;99.90
17845;DHT22;9047;53.486;10.218;2022-10-16T10:47:47;18.50;99.90
17845;DHT22;9047;53.486;10.218;2022-10-16T10:50:33;18.50;99.90
17845;DHT22;9047;53.486;10.218;2022-10-16T10:53:10;18.60;99.90
17845;DHT22;9047;53.486;10.218;2022-10-16T10:55:43;18.60;99.90
17845;DHT22;9047;53.486;10.218;2022-10-16T10:58:40;18.70;99.90
17845;DHT22;9047;53.486;10.218;2022-10-16T11:01:16;18.80;99.90
17845;DHT22;9047;53.486;10.218;2022-10-16T11:04:14;18.90;99.90
17845;DHT22;9047;53.486;10.218;2022-10-16T11:06:48;18.90;99.90
17845;DHT22;9047;53.486;10.218;2022-10-16T11:09:20;18.90;99.90
17845;DHT22;9047;53.486;10.218;2022-10-16T11:11:58;19.00;99.90
17845;DHT22;9047;53.486;10.218;2022-10-16T11:14:29;19.10;99.90
17845;DHT22;9047;53.486;10.218;2022-10-16T11:17:04;19.30;99.90
17845;DHT22;9047;53.486;10.218;2022-10-16T11:19:49;19.30;99.90
17845;DHT22;9047;53.486;10.218;2022-10-16T11:22:26;19.30;99.90
17845;DHT22;9047;53.486;10.218;2022-10-16T11:25:00;19.30;99.90
17845;DHT22;9047;53.486;10.218;2022-10-16T11:27:37;19.20;99.90
17845;DHT22;9047;53.486;10.218;2022-10-16T11:30:14;19.20;99.90
17845;DHT22;9047;53.486;10.218;2022-10-16T11:32:59;19.20;99.90
17845;DHT22;9047;53.486;10.218;2022-10-16T11:35:37;19.20;99.90
17845;DHT22;9047;53.486;10.218;2022-10-16T11:38:19;19.30;99.90
17845;DHT22;9047;53.486;10.218;2022-10-16T11:40:58;19.40;99.90
17845;DHT22;9047;53.486;10.218;2022-10-16T11:43:49;19.50;99.90
17845;DHT22;9047;53.486;10.218;2022-10-16T11:46:25;19.50;99.90
17845;DHT22;9047;53.486;10.218;2022-10-16T11:49:00;19.70;99.90
17845;DHT22;9047;53.486;10.218;2022-10-16T11:51:35;19.80;99.90
17845;DHT22;9047;53.486;10.218;2022-10-16T11:54:17;20.00;99.90
17845;DHT22;9047;53.486;10.218;2022-10-16T11:56:51;20.10;99.90
17845;DHT22;9047;53.486;10.218;2022-10-16T11:59:28;20.20;99.90
17845;DHT22;9047;53.486;10.218;2022-10-16T12:02:15;20.30;99.90
17845;DHT22;9047;53.486;10.218;2022-10-16T12:04:55;20.30;99.90
17845;DHT22;9047;53.486;10.218;2022-10-16T12:07:33;20.30;99.90
17845;DHT22;9047;53.486;10.218;2022-10-16T12:10:19;20.30;99.90
17845;DHT22;9047;53.486;10.218;2022-10-16T12:12:47;20.10;99.90
17845;DHT22;9047;53.486;10.218;2022-10-16T12:15:21;20.00;99.90
17845;DHT22;9047;53.486;10.218;2022-10-16T12:17:49;19.80;99.90
17845;DHT22;9047;53.486;10.218;2022-10-16T12:20:26;19.80;99.90
17845;DHT22;9047;53.486;10.218;2022-10-16T12:22:55;19.80;99.90
17845;DHT22;9047;53.486;10.218;2022-10-16T12:25:25;19.70;99.90
17845;DHT22;9047;53.486;10.218;2022-10-16T12:28:02;19.50;99.90
17845;DHT22;9047;53.486;10.218;2022-10-16T12:30:32;19.40;99.90
17845;DHT22;9047;53.486;10.218;2022-10-16T12:33:01;19.40;99.90
17845;DHT22;9047;53.486;10.218;2022-10-16T12:35:31;19.40;99.90
17845;DHT22;9047;53.486;10.218;2022-10-16T12:38:08;19.30;99.90
17845;DHT22;9047;53.486;10.218;2022-10-16T12:40:42;19.40;99.90
17845;DHT22;9047;53.486;10.218;2022-10-16T12:43:37;19.60;99.90
17845;DHT22;9047;53.486;10.218;2022-10-16T12:46:23;19.70;99.90
17845;DHT22;9047;53.486;10.218;2022-10-16T12:48:50;19.80;99.90
17845;DHT22;9047;53.486;10.218;2022-10-16T12:51:25;19.90;99.90
17845;DHT22;9047;53.486;10.218;2022-10-16T12:54:01;20.00;99.90
17845;DHT22;9047;53.486;10.218;2022-10-16T12:56:43;20.10;99.90
17845;DHT22;9047;53.486;10.218;2022-10-16T12:59:19;20.20;99.90
17845;DHT22;9047;53.486;10.218;2022-10-16T13:02:08;20.20;99.90
17845;DHT22;9047;53.486;10.218;2022-10-16T13:04:56;20.40;99.90
17845;DHT22;9047;53.486;10.218;2022-10-16T13:07:40;20.50;99.90
17845;DHT22;9047;53.486;10.218;2022-10-16T13:10:20;20.60;99.90
17845;DHT22;9047;53.486;10.218;2022-10-16T13:13:09;20.70;99.90
17845;DHT22;9047;53.486;10.218;2022-10-16T13:16:05;20.60;99.90
17845;DHT22;9047;53.486;10.218;2022-10-16T13:18:45;20.70;99.90
17845;DHT22;9047;53.486;10.218;2022-10-16T13:21:35;20.80;99.90
17845;DHT22;9047;53.486;10.218;2022-10-16T13:24:14;20.80;99.90
17845;DHT22;9047;53.486;10.218;2022-10-16T13:26:52;20.70;99.90
17845;DHT22;9047;53.486;10.218;2022-10-16T13:29:22;20.70;99.90
17845;DHT22;9047;53.486;10.218;2022-10-16T13:31:50;20.60;99.90
17845;DHT22;9047;53.486;10.218;2022-10-16T13:34:21;20.50;99.90
17845;DHT22;9047;53.486;10.218;2022-10-16T13:36:51;20.40;99.90
17845;DHT22;9047;53.486;10.218;2022-10-16T13:39:22;20.30;99.90
17845;DHT22;9047;53.486;10.218;2022-10-16T13:42:07;20.40;99.90
17845;DHT22;9047;53.486;10.218;2022-10-16T13:44:52;20.40;99.90
17845;DHT22;9047;53.486;10.218;2022-10-16T13:47:27;20.60;99.90
17845;DHT22;9047;53.486;10.218;2022-10-16T13:50:00;20.70;99.90
17845;DHT22;9047;53.486;10.218;2022-10-16T13:52:40;20.70;99.90
17845;DHT22;9047;53.486;10.218;2022-10-16T13:55:13;20.70;99.90
17845;DHT22;9047;53.486;10.218;2022-10-16T13:57:42;20.80;99.90
17845;DHT22;9047;53.486;10.218;2022-10-16T14:00:24;20.70;99.90
17845;DHT22;9047;53.486;10.218;2022-10-16T14:03:00;20.70;99.90
17845;DHT22;9047;53.486;10.218;2022-10-16T14:05:28;20.60;99.90
17845;DHT22;9047;53.486;10.218;2022-10-16T14:08:02;20.60;99.90
17845;DHT22;9047;53.486;10.218;2022-10-16T14:10:31;20.50;99.90
17845;DHT22;9047;53.486;10.218;2022-10-16T14:13:03;20.40;99.90
17845;DHT22;9047;53.486;10.218;2022-10-16T14:15:36;20.20;99.90
17845;DHT22;9047;53.486;10.218;2022-10-16T14:18:04;20.10;99.90
17845;DHT22;9047;53.486;10.218;2022-10-16T14:20:33;20.10;99.90
17845;DHT22;9047;53.486;10.218;2022-10-16T14:23:18;20.10;99.90
17845;DHT22;9047;53.486;10.218;2022-10-16T14:25:50;20.10;99.90
17845;DHT22;9047;53.486;10.218;2022-10-16T14:28:22;20.00;99.90
17845;DHT22;9047;53.486;10.218;2022-10-16T14:30:53;19.90;99.90
17845;DHT22;9047;53.486;10.218;2022-10-16T14:33:23;19.80;99.90
17845;DHT22;9047;53.486;10.218;2022-10-16T14:36:02;19.70;99.90
17845;DHT22;9047;53.486;10.218;2022-10-16T14:38:34;19.50;99.90
17845;DHT22;9047;53.486;10.218;2022-10-16T14:41:12;19.40;99.90
17845;DHT22;9047;53.486;10.218;2022-10-16T14:43:41;19.30;99.90
17845;DHT22;9047;53.486;10.218;2022-10-16T14:46:18;19.30;99.90
17845;DHT22;9047;53.486;10.218;2022-10-16T14:48:47;19.30;99.90
17845;DHT22;9047;53.486;10.218;2022-10-16T14:51:22;19.20;99.90
17845;DHT22;9047;53.486;10.218;2022-10-16T14:53:50;19.10;99.90
17845;DHT22;9047;53.486;10.218;2022-10-16T14:56:19;19.00;99.90
17845;DHT22;9047;53.486;10.218;2022-10-16T14:58:47;19.00;99.90
17845;DHT22;9047;53.486;10.218;2022-10-16T15:01:17;18.90;99.90
17845;DHT22;9047;53.486;10.218;2022-10-16T15:03:47;18.80;99.90
17845;DHT22;9047;53.486;10.218;2022-10-16T15:06:15;18.80;99.90
17845;DHT22;9047;53.486;10.218;2022-10-16T15:08:44;18.70;99.90
17845;DHT22;9047;53.486;10.218;2022-10-16T15:11:15;18.50;99.90
17845;DHT22;9047;53.486;10.218;2022-10-16T15:13:44;18.40;99.90
17845;DHT22;9047;53.486;10.218;2022-10-16T15:16:14;18.30;99.90
17845;DHT22;9047;53.486;10.218;2022-10-16T15:18:44;18.20;99.90
17845;DHT22;9047;53.486;10.218;2022-10-16T15:21:25;18.10;99.90
17845;DHT22;9047;53.486;10.218;2022-10-16T15:23:59;18.00;99.90
17845;DHT22;9047;53.486;10.218;2022-10-16T15:26:29;17.90;99.90
17845;DHT22;9047;53.486;10.218;2022-10-16T15:28:57;17.90;99.90
17845;DHT22;9047;53.486;10.218;2022-10-16T15:31:26;17.80;99.90
17845;DHT22;9047;53.486;10.218;2022-10-16T15:33:55;17.80;99.90
17845;DHT22;9047;53.486;10.218;2022-10-16T15:36:32;17.70;99.90
17845;DHT22;9047;53.486;10.218;2022-10-16T15:39:06;17.70;99.90
17845;DHT22;9047;53.486;10.218;2022-10-16T15:41:37;17.60;99.90
17845;DHT22;9047;53.486;10.218;2022-10-16T15:44:05;17.50;99.90
17845;DHT22;9047;53.486;10.218;2022-10-16T15:46:32;17.40;99.90
17845;DHT22;9047;53.486;10.218;2022-10-16T15:49:01;17.30;99.90
17845;DHT22;9047;53.486;10.218;2022-10-16T15:51:28;17.20;99.90
17845;DHT22;9047;53.486;10.218;2022-10-16T15:53:59;17.00;99.90
17845;DHT22;9047;53.486;10.218;2022-10-16T15:56:27;16.90;99.90
17845;DHT22;9047;53.486;10.218;2022-10-16T15:58:56;16.80;99.90
17845;DHT22;9047;53.486;10.218;2022-10-16T16:01:25;16.70;99.90
17845;DHT22;9047;53.486;10.218;2022-10-16T16:03:53;16.60;99.90
17845;DHT22;9047;53.486;10.218;2022-10-16T16:06:22;16.50;99.90
17845;DHT22;9047;53.486;10.218;2022-10-16T16:08:49;16.30;99.90
17845;DHT22;9047;53.486;10.218;2022-10-16T16:11:18;16.20;99.90